North Menomonie, Wisconsin
Current Conditions -  °F | °C
As of 8:55 PM on Tuesday 25 Nov 2014 (Local Time) from KLUM Reporting Station
Overcast Overcast  
Wind Chill: 18°   Ceiling: 6000
Heat Index: 24°   Visibility: 10mi
Dew Point: 16°   Wind: 5mph
Humidity: 73%   Direction: 140°SE
Pressure: 30.05"   Gusts: NA
Location:  44.857°N, 92.0071°W
Report Text: KLUM 260255Z AUTO 14004KT 10SM OVC060 M05/M09 A3005 RMK AO2 T10471088
Loading
Personal Weather Stations






























Interactive Weather Map New forecast layout! Learn more

10-Day Weather Forecast

Advertisements
Track Severe Weather on mobile